sensor_id;sensor_type;location;lat;lon;timestamp;P1;durP1;ratioP1;P2;durP2;ratioP2
61038;SDS011;46919;45.816;3.104;2023-03-25T00:01:03;6.30;;;1.30;;
61038;SDS011;46919;45.816;3.104;2023-03-25T00:03:38;8.75;;;1.35;;
61038;SDS011;46919;45.816;3.104;2023-03-25T00:06:11;7.57;;;1.00;;
61038;SDS011;46919;45.816;3.104;2023-03-25T00:08:37;5.50;;;1.40;;
61038;SDS011;46919;45.816;3.104;2023-03-25T00:11:04;3.85;;;1.00;;
61038;SDS011;46919;45.816;3.104;2023-03-25T00:13:31;9.48;;;1.20;;
61038;SDS011;46919;45.816;3.104;2023-03-25T00:15:57;5.25;;;0.93;;
61038;SDS011;46919;45.816;3.104;2023-03-25T00:18:24;7.63;;;1.30;;
61038;SDS011;46919;45.816;3.104;2023-03-25T00:20:53;5.80;;;1.05;;
61038;SDS011;46919;45.816;3.104;2023-03-25T00:23:19;6.70;;;1.17;;
61038;SDS011;46919;45.816;3.104;2023-03-25T00:25:45;6.82;;;1.10;;
61038;SDS011;46919;45.816;3.104;2023-03-25T00:28:12;8.35;;;1.27;;
61038;SDS011;46919;45.816;3.104;2023-03-25T00:30:38;6.53;;;1.67;;
61038;SDS011;46919;45.816;3.104;2023-03-25T00:33:04;3.97;;;1.17;;
61038;SDS011;46919;45.816;3.104;2023-03-25T00:35:30;5.78;;;1.30;;
61038;SDS011;46919;45.816;3.104;2023-03-25T00:37:57;9.55;;;1.40;;
61038;SDS011;46919;45.816;3.104;2023-03-25T00:40:27;8.32;;;1.38;;
61038;SDS011;46919;45.816;3.104;2023-03-25T00:42:54;7.32;;;1.40;;
61038;SDS011;46919;45.816;3.104;2023-03-25T00:45:21;4.93;;;1.15;;
61038;SDS011;46919;45.816;3.104;2023-03-25T00:47:46;6.65;;;1.20;;
61038;SDS011;46919;45.816;3.104;2023-03-25T00:50:12;9.05;;;1.40;;
61038;SDS011;46919;45.816;3.104;2023-03-25T00:52:38;6.40;;;1.20;;
61038;SDS011;46919;45.816;3.104;2023-03-25T00:55:03;4.15;;;1.00;;
61038;SDS011;46919;45.816;3.104;2023-03-25T00:57:30;7.22;;;1.25;;
61038;SDS011;46919;45.816;3.104;2023-03-25T00:59:56;5.60;;;1.00;;
61038;SDS011;46919;45.816;3.104;2023-03-25T01:02:22;5.03;;;0.98;;
61038;SDS011;46919;45.816;3.104;2023-03-25T01:04:48;4.60;;;1.00;;
61038;SDS011;46919;45.816;3.104;2023-03-25T01:07:14;6.55;;;0.90;;
61038;SDS011;46919;45.816;3.104;2023-03-25T01:09:44;6.00;;;1.00;;
61038;SDS011;46919;45.816;3.104;2023-03-25T01:12:11;4.20;;;0.90;;
61038;SDS011;46919;45.816;3.104;2023-03-25T01:14:37;4.38;;;1.00;;
61038;SDS011;46919;45.816;3.104;2023-03-25T01:17:03;6.45;;;1.10;;
61038;SDS011;46919;45.816;3.104;2023-03-25T01:19:29;8.45;;;1.33;;
61038;SDS011;46919;45.816;3.104;2023-03-25T01:21:54;6.10;;;1.10;;
61038;SDS011;46919;45.816;3.104;2023-03-25T01:24:19;7.03;;;1.00;;
61038;SDS011;46919;45.816;3.104;2023-03-25T01:26:45;3.15;;;0.90;;
61038;SDS011;46919;45.816;3.104;2023-03-25T01:29:11;4.53;;;1.00;;
61038;SDS011;46919;45.816;3.104;2023-03-25T01:31:37;4.55;;;0.80;;
61038;SDS011;46919;45.816;3.104;2023-03-25T01:34:03;4.75;;;1.00;;
61038;SDS011;46919;45.816;3.104;2023-03-25T01:36:29;5.00;;;1.10;;
61038;SDS011;46919;45.816;3.104;2023-03-25T01:38:55;5.00;;;1.00;;
61038;SDS011;46919;45.816;3.104;2023-03-25T01:41:22;5.50;;;1.20;;
61038;SDS011;46919;45.816;3.104;2023-03-25T01:44:08;5.18;;;1.15;;
61038;SDS011;46919;45.816;3.104;2023-03-25T01:46:37;6.10;;;1.35;;
61038;SDS011;46919;45.816;3.104;2023-03-25T01:49:03;5.15;;;1.38;;
61038;SDS011;46919;45.816;3.104;2023-03-25T01:51:37;11.50;;;1.60;;
61038;SDS011;46919;45.816;3.104;2023-03-25T01:54:05;3.28;;;1.38;;
61038;SDS011;46919;45.816;3.104;2023-03-25T01:56:32;6.90;;;1.42;;
61038;SDS011;46919;45.816;3.104;2023-03-25T01:59:02;6.47;;;1.30;;
61038;SDS011;46919;45.816;3.104;2023-03-25T02:01:30;7.70;;;1.40;;
61038;SDS011;46919;45.816;3.104;2023-03-25T02:03:56;7.18;;;1.63;;
61038;SDS011;46919;45.816;3.104;2023-03-25T02:06:35;8.90;;;1.38;;
61038;SDS011;46919;45.816;3.104;2023-03-25T02:11:33;5.68;;;1.15;;
61038;SDS011;46919;45.816;3.104;2023-03-25T02:14:02;6.43;;;1.27;;
61038;SDS011;46919;45.816;3.104;2023-03-25T02:16:38;9.15;;;1.42;;
61038;SDS011;46919;45.816;3.104;2023-03-25T02:25:12;8.18;;;1.33;;
61038;SDS011;46919;45.816;3.104;2023-03-25T02:38:43;6.57;;;1.42;;
61038;SDS011;46919;45.816;3.104;2023-03-25T02:41:18;4.30;;;0.90;;
61038;SDS011;46919;45.816;3.104;2023-03-25T02:46:37;4.22;;;0.80;;
61038;SDS011;46919;45.816;3.104;2023-03-25T02:49:43;5.13;;;0.93;;
61038;SDS011;46919;45.816;3.104;2023-03-25T02:52:48;2.83;;;0.80;;
61038;SDS011;46919;45.816;3.104;2023-03-25T02:55:15;6.20;;;0.90;;
61038;SDS011;46919;45.816;3.104;2023-03-25T02:57:44;4.35;;;0.90;;
61038;SDS011;46919;45.816;3.104;2023-03-25T03:00:13;5.63;;;0.80;;
61038;SDS011;46919;45.816;3.104;2023-03-25T03:02:43;5.57;;;0.82;;
61038;SDS011;46919;45.816;3.104;2023-03-25T03:05:30;7.65;;;1.08;;
61038;SDS011;46919;45.816;3.104;2023-03-25T03:08:04;5.80;;;0.80;;
61038;SDS011;46919;45.816;3.104;2023-03-25T03:13:24;5.80;;;1.05;;
61038;SDS011;46919;45.816;3.104;2023-03-25T03:24:15;4.40;;;0.70;;
61038;SDS011;46919;45.816;3.104;2023-03-25T03:26:53;5.32;;;0.98;;
61038;SDS011;46919;45.816;3.104;2023-03-25T03:32:05;3.50;;;0.90;;
61038;SDS011;46919;45.816;3.104;2023-03-25T03:37:14;4.55;;;0.90;;
61038;SDS011;46919;45.816;3.104;2023-03-25T03:39:42;5.90;;;0.80;;
61038;SDS011;46919;45.816;3.104;2023-03-25T03:44:40;4.78;;;0.60;;
61038;SDS011;46919;45.816;3.104;2023-03-25T03:47:11;2.50;;;0.43;;
61038;SDS011;46919;45.816;3.104;2023-03-25T03:49:43;3.30;;;0.50;;
61038;SDS011;46919;45.816;3.104;2023-03-25T03:52:13;3.65;;;0.80;;
61038;SDS011;46919;45.816;3.104;2023-03-25T03:55:05;3.35;;;0.60;;
61038;SDS011;46919;45.816;3.104;2023-03-25T03:57:36;3.22;;;0.73;;
61038;SDS011;46919;45.816;3.104;2023-03-25T04:05:18;3.88;;;1.10;;
61038;SDS011;46919;45.816;3.104;2023-03-25T04:07:51;4.00;;;1.00;;
61038;SDS011;46919;45.816;3.104;2023-03-25T04:12:59;2.00;;;0.60;;
61038;SDS011;46919;45.816;3.104;2023-03-25T04:15:28;3.08;;;0.50;;
61038;SDS011;46919;45.816;3.104;2023-03-25T04:17:54;2.88;;;0.70;;
61038;SDS011;46919;45.816;3.104;2023-03-25T04:20:20;2.00;;;0.65;;
61038;SDS011;46919;45.816;3.104;2023-03-25T04:22:49;6.57;;;0.80;;
61038;SDS011;46919;45.816;3.104;2023-03-25T04:25:18;2.97;;;0.50;;
61038;SDS011;46919;45.816;3.104;2023-03-25T04:27:49;1.90;;;0.40;;
61038;SDS011;46919;45.816;3.104;2023-03-25T04:30:17;2.35;;;0.50;;
61038;SDS011;46919;45.816;3.104;2023-03-25T04:32:44;4.53;;;0.68;;
61038;SDS011;46919;45.816;3.104;2023-03-25T04:35:14;2.20;;;0.70;;
61038;SDS011;46919;45.816;3.104;2023-03-25T04:37:41;6.35;;;1.08;;
61038;SDS011;46919;45.816;3.104;2023-03-25T04:40:09;5.88;;;0.80;;
61038;SDS011;46919;45.816;3.104;2023-03-25T04:42:40;4.05;;;0.85;;
61038;SDS011;46919;45.816;3.104;2023-03-25T04:45:07;7.97;;;1.20;;
61038;SDS011;46919;45.816;3.104;2023-03-25T04:47:38;5.38;;;1.08;;
61038;SDS011;46919;45.816;3.104;2023-03-25T04:50:09;5.20;;;1.10;;
61038;SDS011;46919;45.816;3.104;2023-03-25T04:52:43;3.83;;;0.90;;
61038;SDS011;46919;45.816;3.104;2023-03-25T04:55:10;5.50;;;1.23;;
61038;SDS011;46919;45.816;3.104;2023-03-25T04:57:41;5.78;;;0.93;;
61038;SDS011;46919;45.816;3.104;2023-03-25T05:00:16;8.10;;;1.10;;
61038;SDS011;46919;45.816;3.104;2023-03-25T05:02:44;4.07;;;0.88;;
61038;SDS011;46919;45.816;3.104;2023-03-25T05:05:14;3.22;;;0.73;;
61038;SDS011;46919;45.816;3.104;2023-03-25T05:07:45;7.22;;;0.98;;
61038;SDS011;46919;45.816;3.104;2023-03-25T05:10:13;4.78;;;0.90;;
61038;SDS011;46919;45.816;3.104;2023-03-25T05:12:40;3.20;;;0.80;;
61038;SDS011;46919;45.816;3.104;2023-03-25T05:15:06;6.35;;;1.50;;
61038;SDS011;46919;45.816;3.104;2023-03-25T05:17:32;1.80;;;0.52;;
61038;SDS011;46919;45.816;3.104;2023-03-25T05:19:57;5.53;;;1.23;;
61038;SDS011;46919;45.816;3.104;2023-03-25T05:22:22;7.55;;;1.52;;
61038;SDS011;46919;45.816;3.104;2023-03-25T05:24:48;5.15;;;1.08;;
61038;SDS011;46919;45.816;3.104;2023-03-25T05:27:17;5.32;;;1.10;;
61038;SDS011;46919;45.816;3.104;2023-03-25T05:29:44;7.90;;;0.93;;
61038;SDS011;46919;45.816;3.104;2023-03-25T05:32:12;8.65;;;1.05;;
61038;SDS011;46919;45.816;3.104;2023-03-25T05:34:42;4.97;;;0.90;;
61038;SDS011;46919;45.816;3.104;2023-03-25T05:37:11;5.00;;;1.02;;
61038;SDS011;46919;45.816;3.104;2023-03-25T05:39:37;8.40;;;1.42;;
61038;SDS011;46919;45.816;3.104;2023-03-25T05:42:02;6.70;;;1.25;;
61038;SDS011;46919;45.816;3.104;2023-03-25T05:44:28;5.45;;;1.42;;
61038;SDS011;46919;45.816;3.104;2023-03-25T05:46:53;5.25;;;0.90;;
61038;SDS011;46919;45.816;3.104;2023-03-25T05:49:19;6.28;;;1.10;;
61038;SDS011;46919;45.816;3.104;2023-03-25T05:51:45;5.68;;;1.20;;
61038;SDS011;46919;45.816;3.104;2023-03-25T05:54:13;4.63;;;1.00;;
61038;SDS011;46919;45.816;3.104;2023-03-25T05:56:40;6.20;;;1.33;;
61038;SDS011;46919;45.816;3.104;2023-03-25T05:59:06;6.72;;;1.27;;
61038;SDS011;46919;45.816;3.104;2023-03-25T06:01:33;10.88;;;1.50;;
61038;SDS011;46919;45.816;3.104;2023-03-25T06:03:58;8.77;;;1.40;;
61038;SDS011;46919;45.816;3.104;2023-03-25T06:06:28;8.10;;;1.38;;
61038;SDS011;46919;45.816;3.104;2023-03-25T06:08:54;3.22;;;0.90;;
61038;SDS011;46919;45.816;3.104;2023-03-25T06:11:19;4.22;;;0.70;;
61038;SDS011;46919;45.816;3.104;2023-03-25T06:13:45;4.45;;;0.90;;
61038;SDS011;46919;45.816;3.104;2023-03-25T06:16:23;3.03;;;0.60;;
61038;SDS011;46919;45.816;3.104;2023-03-25T06:18:53;4.45;;;0.80;;
61038;SDS011;46919;45.816;3.104;2023-03-25T06:21:23;6.03;;;0.70;;
61038;SDS011;46919;45.816;3.104;2023-03-25T06:23:50;4.85;;;0.85;;
61038;SDS011;46919;45.816;3.104;2023-03-25T06:26:18;6.18;;;0.88;;
61038;SDS011;46919;45.816;3.104;2023-03-25T06:28:44;7.35;;;1.00;;
61038;SDS011;46919;45.816;3.104;2023-03-25T06:31:17;6.13;;;1.00;;
61038;SDS011;46919;45.816;3.104;2023-03-25T06:33:47;5.25;;;0.93;;
61038;SDS011;46919;45.816;3.104;2023-03-25T06:36:14;8.50;;;1.10;;
61038;SDS011;46919;45.816;3.104;2023-03-25T06:38:48;5.70;;;1.25;;
61038;SDS011;46919;45.816;3.104;2023-03-25T06:41:15;5.80;;;0.90;;
61038;SDS011;46919;45.816;3.104;2023-03-25T06:43:44;7.20;;;0.90;;
61038;SDS011;46919;45.816;3.104;2023-03-25T06:46:10;7.07;;;0.90;;
61038;SDS011;46919;45.816;3.104;2023-03-25T06:48:36;5.88;;;0.90;;
61038;SDS011;46919;45.816;3.104;2023-03-25T06:51:01;5.93;;;0.90;;
61038;SDS011;46919;45.816;3.104;2023-03-25T06:53:27;5.65;;;1.02;;
61038;SDS011;46919;45.816;3.104;2023-03-25T06:55:55;4.25;;;0.80;;
61038;SDS011;46919;45.816;3.104;2023-03-25T06:58:21;3.05;;;0.88;;
61038;SDS011;46919;45.816;3.104;2023-03-25T07:00:46;4.75;;;0.98;;
61038;SDS011;46919;45.816;3.104;2023-03-25T07:03:16;5.20;;;0.70;;
61038;SDS011;46919;45.816;3.104;2023-03-25T07:05:42;5.03;;;0.80;;
61038;SDS011;46919;45.816;3.104;2023-03-25T07:08:07;5.18;;;0.85;;
61038;SDS011;46919;45.816;3.104;2023-03-25T07:10:33;3.28;;;0.60;;
61038;SDS011;46919;45.816;3.104;2023-03-25T07:12:58;4.80;;;0.80;;
61038;SDS011;46919;45.816;3.104;2023-03-25T07:15:24;3.55;;;0.60;;
61038;SDS011;46919;45.816;3.104;2023-03-25T07:17:49;4.07;;;0.73;;
61038;SDS011;46919;45.816;3.104;2023-03-25T07:20:15;4.68;;;0.85;;
61038;SDS011;46919;45.816;3.104;2023-03-25T07:22:40;2.97;;;0.82;;
61038;SDS011;46919;45.816;3.104;2023-03-25T07:25:06;4.95;;;0.90;;
61038;SDS011;46919;45.816;3.104;2023-03-25T07:27:31;3.25;;;0.85;;
61038;SDS011;46919;45.816;3.104;2023-03-25T07:29:57;3.05;;;0.60;;
61038;SDS011;46919;45.816;3.104;2023-03-25T07:32:22;5.40;;;1.00;;
61038;SDS011;46919;45.816;3.104;2023-03-25T07:34:47;4.38;;;1.45;;
61038;SDS011;46919;45.816;3.104;2023-03-25T07:37:13;2.67;;;0.90;;
61038;SDS011;46919;45.816;3.104;2023-03-25T07:39:38;3.60;;;0.95;;
61038;SDS011;46919;45.816;3.104;2023-03-25T07:42:04;8.18;;;1.38;;
61038;SDS011;46919;45.816;3.104;2023-03-25T07:44:30;7.63;;;1.40;;
61038;SDS011;46919;45.816;3.104;2023-03-25T07:46:55;3.45;;;0.75;;
61038;SDS011;46919;45.816;3.104;2023-03-25T07:49:21;2.28;;;0.35;;
61038;SDS011;46919;45.816;3.104;2023-03-25T07:51:46;3.10;;;0.80;;
61038;SDS011;46919;45.816;3.104;2023-03-25T07:54:12;2.17;;;0.70;;
61038;SDS011;46919;45.816;3.104;2023-03-25T07:56:37;6.57;;;0.98;;
61038;SDS011;46919;45.816;3.104;2023-03-25T07:59:03;2.22;;;0.70;;
61038;SDS011;46919;45.816;3.104;2023-03-25T08:01:29;1.83;;;0.60;;
61038;SDS011;46919;45.816;3.104;2023-03-25T08:03:55;2.35;;;0.60;;
61038;SDS011;46919;45.816;3.104;2023-03-25T08:06:20;5.10;;;0.77;;
61038;SDS011;46919;45.816;3.104;2023-03-25T08:08:46;2.90;;;0.68;;
61038;SDS011;46919;45.816;3.104;2023-03-25T08:11:11;3.38;;;0.68;;
61038;SDS011;46919;45.816;3.104;2023-03-25T08:13:36;1.67;;;0.47;;
61038;SDS011;46919;45.816;3.104;2023-03-25T08:16:02;2.75;;;0.40;;
61038;SDS011;46919;45.816;3.104;2023-03-25T08:18:28;3.25;;;0.65;;
61038;SDS011;46919;45.816;3.104;2023-03-25T08:20:54;1.67;;;0.43;;
61038;SDS011;46919;45.816;3.104;2023-03-25T08:23:19;1.38;;;0.40;;
61038;SDS011;46919;45.816;3.104;2023-03-25T08:25:46;1.48;;;0.50;;
61038;SDS011;46919;45.816;3.104;2023-03-25T08:28:13;2.05;;;0.45;;
61038;SDS011;46919;45.816;3.104;2023-03-25T08:30:41;1.63;;;0.35;;
61038;SDS011;46919;45.816;3.104;2023-03-25T08:33:07;1.27;;;0.50;;
61038;SDS011;46919;45.816;3.104;2023-03-25T08:35:35;1.65;;;0.30;;
61038;SDS011;46919;45.816;3.104;2023-03-25T08:38:02;1.42;;;0.40;;
61038;SDS011;46919;45.816;3.104;2023-03-25T08:40:31;0.93;;;0.10;;
61038;SDS011;46919;45.816;3.104;2023-03-25T08:42:57;0.28;;;0.20;;
61038;SDS011;46919;45.816;3.104;2023-03-25T08:45:22;1.17;;;0.30;;
61038;SDS011;46919;45.816;3.104;2023-03-25T08:47:48;1.33;;;0.10;;
61038;SDS011;46919;45.816;3.104;2023-03-25T08:50:13;1.25;;;0.30;;
61038;SDS011;46919;45.816;3.104;2023-03-25T08:52:39;1.00;;;0.40;;
61038;SDS011;46919;45.816;3.104;2023-03-25T08:55:05;1.70;;;0.20;;
61038;SDS011;46919;45.816;3.104;2023-03-25T08:57:34;0.95;;;0.30;;
61038;SDS011;46919;45.816;3.104;2023-03-25T09:00:00;1.38;;;0.22;;
61038;SDS011;46919;45.816;3.104;2023-03-25T09:02:26;1.30;;;0.63;;
61038;SDS011;46919;45.816;3.104;2023-03-25T09:04:52;1.27;;;0.22;;
61038;SDS011;46919;45.816;3.104;2023-03-25T09:07:18;0.45;;;0.10;;
61038;SDS011;46919;45.816;3.104;2023-03-25T09:09:44;0.95;;;0.20;;
61038;SDS011;46919;45.816;3.104;2023-03-25T09:12:10;0.50;;;0.20;;
61038;SDS011;46919;45.816;3.104;2023-03-25T09:14:36;1.08;;;0.50;;
61038;SDS011;46919;45.816;3.104;2023-03-25T09:17:02;0.98;;;0.20;;
61038;SDS011;46919;45.816;3.104;2023-03-25T09:19:29;0.10;;;0.10;;
61038;SDS011;46919;45.816;3.104;2023-03-25T09:21:55;0.40;;;0.10;;
61038;SDS011;46919;45.816;3.104;2023-03-25T09:24:20;0.43;;;0.10;;
61038;SDS011;46919;45.816;3.104;2023-03-25T09:26:46;0.90;;;0.20;;
61038;SDS011;46919;45.816;3.104;2023-03-25T09:29:12;0.73;;;0.30;;
61038;SDS011;46919;45.816;3.104;2023-03-25T09:31:37;0.98;;;0.30;;
61038;SDS011;46919;45.816;3.104;2023-03-25T09:34:03;0.98;;;0.60;;
61038;SDS011;46919;45.816;3.104;2023-03-25T09:36:28;2.30;;;0.30;;
61038;SDS011;46919;45.816;3.104;2023-03-25T09:38:56;1.23;;;0.28;;
61038;SDS011;46919;45.816;3.104;2023-03-25T09:46:15;1.17;;;0.40;;
61038;SDS011;46919;45.816;3.104;2023-03-25T09:48:43;1.27;;;0.30;;
61038;SDS011;46919;45.816;3.104;2023-03-25T09:51:16;1.92;;;0.30;;
61038;SDS011;46919;45.816;3.104;2023-03-25T09:56:34;1.50;;;0.32;;
61038;SDS011;46919;45.816;3.104;2023-03-25T09:59:09;1.40;;;0.60;;
61038;SDS011;46919;45.816;3.104;2023-03-25T10:09:54;2.20;;;0.40;;
61038;SDS011;46919;45.816;3.104;2023-03-25T10:21:08;2.40;;;0.77;;
61038;SDS011;46919;45.816;3.104;2023-03-25T10:26:11;2.38;;;0.70;;
61038;SDS011;46919;45.816;3.104;2023-03-25T10:28:59;1.53;;;0.40;;
61038;SDS011;46919;45.816;3.104;2023-03-25T10:31:30;1.10;;;0.47;;
61038;SDS011;46919;45.816;3.104;2023-03-25T10:34:05;2.10;;;0.63;;
61038;SDS011;46919;45.816;3.104;2023-03-25T10:36:40;3.42;;;0.90;;
61038;SDS011;46919;45.816;3.104;2023-03-25T10:39:17;3.45;;;0.80;;
61038;SDS011;46919;45.816;3.104;2023-03-25T10:41:51;2.90;;;0.63;;
61038;SDS011;46919;45.816;3.104;2023-03-25T10:44:24;3.90;;;0.88;;
61038;SDS011;46919;45.816;3.104;2023-03-25T10:49:27;5.65;;;0.80;;
61038;SDS011;46919;45.816;3.104;2023-03-25T10:51:55;4.63;;;0.68;;
61038;SDS011;46919;45.816;3.104;2023-03-25T10:54:22;3.00;;;1.10;;
61038;SDS011;46919;45.816;3.104;2023-03-25T10:56:52;3.83;;;0.70;;
61038;SDS011;46919;45.816;3.104;2023-03-25T10:59:36;2.90;;;0.65;;
61038;SDS011;46919;45.816;3.104;2023-03-25T11:02:18;3.28;;;0.75;;
61038;SDS011;46919;45.816;3.104;2023-03-25T11:04:47;4.85;;;0.75;;
61038;SDS011;46919;45.816;3.104;2023-03-25T11:07:20;2.80;;;0.70;;
61038;SDS011;46919;45.816;3.104;2023-03-25T11:09:50;5.45;;;0.82;;
61038;SDS011;46919;45.816;3.104;2023-03-25T11:12:18;2.60;;;0.70;;
61038;SDS011;46919;45.816;3.104;2023-03-25T11:14:52;3.53;;;0.60;;
61038;SDS011;46919;45.816;3.104;2023-03-25T11:17:19;4.18;;;0.60;;
61038;SDS011;46919;45.816;3.104;2023-03-25T11:19:58;1.63;;;0.40;;
61038;SDS011;46919;45.816;3.104;2023-03-25T11:22:34;1.75;;;0.70;;
61038;SDS011;46919;45.816;3.104;2023-03-25T11:25:05;3.67;;;0.70;;
61038;SDS011;46919;45.816;3.104;2023-03-25T11:27:47;3.30;;;1.00;;
61038;SDS011;46919;45.816;3.104;2023-03-25T11:30:17;3.92;;;0.40;;
61038;SDS011;46919;45.816;3.104;2023-03-25T11:32:55;3.05;;;0.57;;
61038;SDS011;46919;45.816;3.104;2023-03-25T11:35:27;5.07;;;0.70;;
61038;SDS011;46919;45.816;3.104;2023-03-25T11:37:56;2.67;;;0.52;;
61038;SDS011;46919;45.816;3.104;2023-03-25T11:40:23;3.00;;;0.63;;
61038;SDS011;46919;45.816;3.104;2023-03-25T11:42:52;2.50;;;0.75;;
61038;SDS011;46919;45.816;3.104;2023-03-25T11:48:16;2.95;;;0.60;;
61038;SDS011;46919;45.816;3.104;2023-03-25T11:50:44;4.80;;;1.02;;
61038;SDS011;46919;45.816;3.104;2023-03-25T11:53:16;4.05;;;0.98;;
61038;SDS011;46919;45.816;3.104;2023-03-25T11:55:44;2.25;;;0.63;;
61038;SDS011;46919;45.816;3.104;2023-03-25T11:58:15;2.80;;;0.60;;
61038;SDS011;46919;45.816;3.104;2023-03-25T12:00:46;1.65;;;0.50;;
61038;SDS011;46919;45.816;3.104;2023-03-25T12:05:39;2.47;;;0.50;;
61038;SDS011;46919;45.816;3.104;2023-03-25T12:11:02;3.38;;;0.63;;
61038;SDS011;46919;45.816;3.104;2023-03-25T12:19:49;2.47;;;0.40;;
61038;SDS011;46919;45.816;3.104;2023-03-25T12:33:07;2.70;;;0.13;;
61038;SDS011;46919;45.816;3.104;2023-03-25T12:44:13;0.77;;;0.28;;
61038;SDS011;46919;45.816;3.104;2023-03-25T12:47:44;0.68;;;0.10;;
61038;SDS011;46919;45.816;3.104;2023-03-25T12:52:45;0.60;;;0.13;;
61038;SDS011;46919;45.816;3.104;2023-03-25T12:58:25;1.02;;;0.40;;
61038;SDS011;46919;45.816;3.104;2023-03-25T13:06:28;0.30;;;0.20;;
61038;SDS011;46919;45.816;3.104;2023-03-25T13:14:59;0.82;;;0.20;;
61038;SDS011;46919;45.816;3.104;2023-03-25T13:17:50;0.10;;;0.10;;
61038;SDS011;46919;45.816;3.104;2023-03-25T13:20:22;0.68;;;0.35;;
61038;SDS011;46919;45.816;3.104;2023-03-25T13:22:51;0.50;;;0.20;;
61038;SDS011;46919;45.816;3.104;2023-03-25T13:28:14;0.70;;;0.40;;
61038;SDS011;46919;45.816;3.104;2023-03-25T13:30:44;0.55;;;0.20;;
61038;SDS011;46919;45.816;3.104;2023-03-25T13:33:14;0.20;;;0.10;;
61038;SDS011;46919;45.816;3.104;2023-03-25T13:35:48;0.50;;;0.30;;
61038;SDS011;46919;45.816;3.104;2023-03-25T13:38:32;1.17;;;0.32;;
61038;SDS011;46919;45.816;3.104;2023-03-25T13:41:11;0.20;;;0.20;;
61038;SDS011;46919;45.816;3.104;2023-03-25T13:43:47;0.28;;;0.20;;
61038;SDS011;46919;45.816;3.104;2023-03-25T13:46:24;5.90;;;0.40;;
61038;SDS011;46919;45.816;3.104;2023-03-25T13:49:04;31.67;;;3.20;;
61038;SDS011;46919;45.816;3.104;2023-03-25T13:51:37;28.90;;;2.88;;
61038;SDS011;46919;45.816;3.104;2023-03-25T13:56:33;3.97;;;0.90;;
61038;SDS011;46919;45.816;3.104;2023-03-25T14:02:37;1.83;;;0.30;;
61038;SDS011;46919;45.816;3.104;2023-03-25T14:13:40;1.48;;;0.32;;
61038;SDS011;46919;45.816;3.104;2023-03-25T14:16:20;3.03;;;0.35;;
61038;SDS011;46919;45.816;3.104;2023-03-25T14:18:51;2.22;;;0.47;;
61038;SDS011;46919;45.816;3.104;2023-03-25T14:24:00;3.25;;;0.65;;
61038;SDS011;46919;45.816;3.104;2023-03-25T14:26:26;2.97;;;0.50;;
61038;SDS011;46919;45.816;3.104;2023-03-25T14:28:52;9.15;;;1.52;;
61038;SDS011;46919;45.816;3.104;2023-03-25T14:31:24;2.17;;;0.50;;
61038;SDS011;46919;45.816;3.104;2023-03-25T14:39:07;9.07;;;0.90;;
61038;SDS011;46919;45.816;3.104;2023-03-25T14:44:30;2.42;;;0.57;;
61038;SDS011;46919;45.816;3.104;2023-03-25T14:47:01;3.97;;;0.50;;
61038;SDS011;46919;45.816;3.104;2023-03-25T14:53:04;3.97;;;0.90;;
61038;SDS011;46919;45.816;3.104;2023-03-25T14:55:44;3.50;;;0.60;;
61038;SDS011;46919;45.816;3.104;2023-03-25T14:58:24;3.20;;;0.73;;
61038;SDS011;46919;45.816;3.104;2023-03-25T15:00:58;2.97;;;0.73;;
61038;SDS011;46919;45.816;3.104;2023-03-25T15:03:38;28.58;;;3.42;;
61038;SDS011;46919;45.816;3.104;2023-03-25T15:06:13;6.10;;;1.13;;
61038;SDS011;46919;45.816;3.104;2023-03-25T15:08:50;4.78;;;0.80;;
61038;SDS011;46919;45.816;3.104;2023-03-25T15:11:26;2.58;;;0.90;;
61038;SDS011;46919;45.816;3.104;2023-03-25T15:14:08;9.15;;;1.52;;
61038;SDS011;46919;45.816;3.104;2023-03-25T15:19:12;2.05;;;0.70;;
61038;SDS011;46919;45.816;3.104;2023-03-25T15:24:30;5.45;;;1.10;;
61038;SDS011;46919;45.816;3.104;2023-03-25T15:27:08;2.70;;;0.57;;
61038;SDS011;46919;45.816;3.104;2023-03-25T15:32:33;4.45;;;1.08;;
61038;SDS011;46919;45.816;3.104;2023-03-25T15:54:43;3.38;;;0.80;;
61038;SDS011;46919;45.816;3.104;2023-03-25T15:57:21;5.15;;;1.20;;
61038;SDS011;46919;45.816;3.104;2023-03-25T16:00:07;5.18;;;0.90;;
61038;SDS011;46919;45.816;3.104;2023-03-25T16:05:25;6.20;;;1.10;;
61038;SDS011;46919;45.816;3.104;2023-03-25T16:07:52;3.72;;;0.95;;
61038;SDS011;46919;45.816;3.104;2023-03-25T16:10:25;2.80;;;0.98;;
61038;SDS011;46919;45.816;3.104;2023-03-25T16:12:55;3.47;;;0.80;;
61038;SDS011;46919;45.816;3.104;2023-03-25T16:15:27;5.45;;;0.98;;
61038;SDS011;46919;45.816;3.104;2023-03-25T16:17:55;4.75;;;0.85;;
61038;SDS011;46919;45.816;3.104;2023-03-25T16:20:23;5.60;;;1.17;;
61038;SDS011;46919;45.816;3.104;2023-03-25T16:22:51;4.55;;;1.23;;
61038;SDS011;46919;45.816;3.104;2023-03-25T16:25:22;5.68;;;1.33;;
61038;SDS011;46919;45.816;3.104;2023-03-25T16:28:02;7.15;;;1.27;;
61038;SDS011;46919;45.816;3.104;2023-03-25T16:30:34;6.32;;;1.10;;
61038;SDS011;46919;45.816;3.104;2023-03-25T16:35:37;6.80;;;1.35;;
61038;SDS011;46919;45.816;3.104;2023-03-25T16:38:03;4.18;;;1.55;;
61038;SDS011;46919;45.816;3.104;2023-03-25T16:40:30;5.97;;;1.50;;
61038;SDS011;46919;45.816;3.104;2023-03-25T16:43:10;5.43;;;1.40;;
61038;SDS011;46919;45.816;3.104;2023-03-25T16:45:40;7.97;;;1.55;;
61038;SDS011;46919;45.816;3.104;2023-03-25T16:48:12;6.20;;;1.55;;
61038;SDS011;46919;45.816;3.104;2023-03-25T16:50:42;5.50;;;0.93;;
61038;SDS011;46919;45.816;3.104;2023-03-25T16:53:10;9.60;;;1.30;;
61038;SDS011;46919;45.816;3.104;2023-03-25T16:55:44;5.72;;;1.50;;
61038;SDS011;46919;45.816;3.104;2023-03-25T16:58:19;9.15;;;2.00;;
61038;SDS011;46919;45.816;3.104;2023-03-25T17:00:47;6.50;;;1.90;;
61038;SDS011;46919;45.816;3.104;2023-03-25T17:03:16;10.35;;;1.50;;
61038;SDS011;46919;45.816;3.104;2023-03-25T17:06:46;4.60;;;1.30;;
61038;SDS011;46919;45.816;3.104;2023-03-25T17:08:50;7.45;;;1.67;;
61038;SDS011;46919;45.816;3.104;2023-03-25T17:11:17;12.30;;;2.17;;
61038;SDS011;46919;45.816;3.104;2023-03-25T17:13:45;9.77;;;1.77;;
61038;SDS011;46919;45.816;3.104;2023-03-25T17:16:16;7.18;;;1.60;;
61038;SDS011;46919;45.816;3.104;2023-03-25T17:18:42;6.40;;;1.55;;
61038;SDS011;46919;45.816;3.104;2023-03-25T17:21:11;8.55;;;1.73;;
61038;SDS011;46919;45.816;3.104;2023-03-25T17:23:50;8.50;;;1.58;;
61038;SDS011;46919;45.816;3.104;2023-03-25T17:26:17;8.60;;;1.70;;
61038;SDS011;46919;45.816;3.104;2023-03-25T17:36:47;6.97;;;1.58;;
61038;SDS011;46919;45.816;3.104;2023-03-25T17:39:20;5.72;;;1.60;;
61038;SDS011;46919;45.816;3.104;2023-03-25T17:41:51;9.10;;;1.25;;
61038;SDS011;46919;45.816;3.104;2023-03-25T17:44:30;9.05;;;2.10;;
61038;SDS011;46919;45.816;3.104;2023-03-25T17:46:58;5.68;;;1.60;;
61038;SDS011;46919;45.816;3.104;2023-03-25T17:49:23;9.18;;;1.70;;
61038;SDS011;46919;45.816;3.104;2023-03-25T17:51:48;5.93;;;1.60;;
61038;SDS011;46919;45.816;3.104;2023-03-25T17:54:14;8.15;;;2.13;;
61038;SDS011;46919;45.816;3.104;2023-03-25T17:56:40;8.93;;;2.42;;
61038;SDS011;46919;45.816;3.104;2023-03-25T17:59:09;9.77;;;1.60;;
61038;SDS011;46919;45.816;3.104;2023-03-25T18:01:40;6.60;;;1.77;;
61038;SDS011;46919;45.816;3.104;2023-03-25T18:04:06;10.00;;;1.92;;
61038;SDS011;46919;45.816;3.104;2023-03-25T18:06:33;12.77;;;2.20;;
61038;SDS011;46919;45.816;3.104;2023-03-25T18:08:59;7.43;;;1.88;;
61038;SDS011;46919;45.816;3.104;2023-03-25T18:11:24;9.07;;;1.73;;
61038;SDS011;46919;45.816;3.104;2023-03-25T18:13:50;7.90;;;1.63;;
61038;SDS011;46919;45.816;3.104;2023-03-25T18:16:17;9.88;;;1.73;;
61038;SDS011;46919;45.816;3.104;2023-03-25T18:18:44;13.02;;;1.88;;
61038;SDS011;46919;45.816;3.104;2023-03-25T18:21:11;9.48;;;1.65;;
61038;SDS011;46919;45.816;3.104;2023-03-25T18:23:38;9.25;;;2.38;;
61038;SDS011;46919;45.816;3.104;2023-03-25T18:26:05;9.32;;;1.85;;